Meteo Giornale » Osservazioni meteo Bosnia-Erzegovina » Tuzla

ore: 18:00 - Osservazioni Meteo Tuzla
Lat. 44° 33' N Lon. 18° 42' E Alt. 306 metri s.l.m.

sereno Europe/Sarajevo

24 °C

Sereno

Temp. 24 Ore

9 °C

28 °C

Nord

3.7 Km/h

Dew point 11 °C

Umidità 43 %

Visibilità  10 Km

Il sole sorge alle ore 06:30

Il sole tramonta alle ore 18:45

Data e Ora Cielo e Fenomeni T °C DP °C Um. % Pres. hPa Vis. km Vento km/h
Oggi h: 18:00 sereno Sereno 24 11 43 1016 10 N 3.7
Oggi h: 17:00 poco_nuvoloso Poco Nuvoloso 26 12 41 1016 10 E/SE 7.4
Oggi h: 16:00 poco_nuvoloso Poco Nuvoloso 27 12 39 1016 10 E/SE 18.5
Oggi h: 15:00 poco_nuvoloso Poco Nuvoloso 28 13 39 1016 10 E/SE 11.1
Oggi h: 14:00 poco_nuvoloso Poco Nuvoloso 27 13 42 1016 10 E/SE 11.1
Oggi h: 13:30 poco_nuvoloso Poco Nuvoloso 27 13 42 1016 10 E/SE 11.1
Oggi h: 13:00 poco_nuvoloso Poco Nuvoloso 26 13 44 1017 10 E 11.1
Oggi h: 12:30 poco_nuvoloso Poco Nuvoloso 25 15 53 1017 10 E/SE 9.3
Oggi h: 12:00 sereno Sereno 24 15 57 1017 10 E/NE 7.4
Oggi h: 11:30 sereno Sereno 22 15 64 1017 10 N 5.5
Oggi h: 11:00 sereno Sereno 21 15 68 1017 10 N 5.5
Oggi h: 10:30 sereno Sereno 20 15 72 1018 10 N 3.7
Oggi h: 10:00 sereno Sereno 19 16 82 1018 10 N 3.7
Oggi h: 09:30 sereno Sereno 17 15 88 1018 10 N 3.7
Oggi h: 09:00 poco_nuvoloso Poco Nuvoloso 14 13 93 1018 10 N 3.7
Oggi h: 08:30 poco_nuvoloso Poco Nuvoloso 13 12 93 1018 10 N 1.8
Oggi h: 08:00 sereno Sereno 11 10 93 1018 8 N 1.8
Oggi h: 07:30 foschia Foschia 10 10 100 1018 5 N 1.8
Oggi h: 07:00 foschia Foschia 9 9 100 1017 5 N 3.7
Oggi h: 06:30 foschia Foschia 9 9 100 1017 5 N 3.7
Oggi h: 06:00 foschia Foschia 9 9 100 1017 3 N 1.8
Oggi h: 05:30 sereno Sereno 9 9 100 1017 7 N 1.8
Oggi h: 05:00 poco_nuvoloso Poco Nuvoloso 10 10 100 1017 6 N 1.8
Oggi h: 04:00 sereno Sereno 10 10 100 1017 10 N 1.8
Oggi h: 02:00 sereno Sereno 10 10 100 1017 10 N 1.8
Oggi h: 01:00 sereno Sereno 10 10 100 1017 10 N 1.8
Oggi h: 00:00 sereno Sereno 11 11 100 1017 10 N 1.8
Ieri h: 23:00 sereno Sereno 12 11 93 1017 10 N 1.8
Ieri h: 22:30 sereno Sereno 13 12 93 1017 10 N 3.7
Ieri h: 22:00 sereno Sereno 13 12 93 1017 10 N 3.7
Ieri h: 21:30 sereno Sereno 14 13 93 1017 10 N 3.7
Ieri h: 21:00 sereno Sereno 15 13 87 1017 10 N 3.7
Ieri h: 20:30 sereno Sereno 16 10 67 1017 10 N 1.8
Ieri h: 20:00 sereno Sereno 16 10 67 1016 10 N 3.7